Time;durP1;ratioP1;P1;durP2;ratioP2;P2;SDS_P1;SDS_P2;PMS_P1;PMS_P2;Temp;Humidity;BMP_temperature;BMP_pressure;BME280_temperature;BME280_humidity;BME280_pressure;Samples;Min_cycle;Max_cycle;Signal;HPM_P1;HPM_P2
2022/09/14 00:00:45;;;;;;;267.63;259.83;;;17.20;99.90;;;;;;5038805;28;20459;-83
2022/09/14 00:03:11;;;;;;;262.40;255.00;;;17.10;99.90;;;;;;5041169;28;20475;-84
2022/09/14 00:05:38;;;;;;;267.47;259.93;;;16.90;99.90;;;;;;5023829;28;20470;-84
2022/09/14 00:08:05;;;;;;;261.20;253.80;;;16.80;99.90;;;;;;5029339;28;20461;-83
2022/09/14 00:10:33;;;;;;;301.10;292.70;;;16.90;99.90;;;;;;5041988;28;20461;-83
2022/09/14 00:13:00;;;;;;;304.97;296.50;;;16.70;99.90;;;;;;5036064;28;20447;-83
2022/09/14 00:15:27;;;;;;;314.13;305.43;;;16.80;99.90;;;;;;5029283;28;21022;-83
2022/09/14 00:17:56;;;;;;;342.57;333.10;;;16.90;99.90;;;;;;5042289;28;20834;-83
2022/09/14 00:20:23;;;;;;;357.33;347.43;;;16.70;99.90;;;;;;5041585;28;20466;-84
2022/09/14 00:22:50;;;;;;;360.60;350.60;;;16.70;99.90;;;;;;5036531;28;20460;-83
2022/09/14 00:25:17;;;;;;;368.07;357.87;;;16.70;99.90;;;;;;5021797;28;20482;-83
2022/09/14 00:27:45;;;;;;;355.27;345.47;;;16.70;99.90;;;;;;5024759;28;20520;-83
2022/09/14 00:30:12;;;;;;;357.30;347.40;;;16.70;99.90;;;;;;5041971;28;20471;-84
2022/09/14 00:32:39;;;;;;;343.27;333.77;;;16.70;99.90;;;;;;5038081;28;20946;-83
2022/09/14 00:35:06;;;;;;;382.93;372.00;;;16.70;99.90;;;;;;5040918;28;21046;-83
2022/09/14 00:37:33;;;;;;;415.23;403.23;;;16.70;99.90;;;;;;5041060;28;20455;-83
2022/09/14 00:40:00;;;;;;;425.10;412.70;;;16.70;99.90;;;;;;5040351;28;20483;-83
2022/09/14 00:42:26;;;;;;;429.10;416.50;;;16.70;99.90;;;;;;5040608;28;20463;-83
2022/09/14 00:45:10;;;;;;;429.37;416.77;;;16.70;99.90;;;;;;5022009;28;20865;-83
2022/09/14 00:47:37;;;;;;;438.20;425.30;;;16.70;99.90;;;;;;5022525;28;20454;-84
2022/09/14 00:50:06;;;;;;;449.53;436.20;;;16.70;99.90;;;;;;5022617;28;20456;-83
2022/09/14 00:52:36;;;;;;;450.60;437.30;;;16.70;99.90;;;;;;5024228;28;20462;-83
2022/09/14 00:55:07;;;;;;;450.50;437.10;;;16.70;99.90;;;;;;5042191;28;20470;-84
2022/09/14 00:57:37;;;;;;;445.03;431.80;;;16.70;99.90;;;;;;5041802;28;20531;-83
2022/09/14 01:00:09;;;;;;;450.50;437.07;;;16.70;99.90;;;;;;5043060;28;20486;-83
2022/09/14 01:02:36;;;;;;;450.37;436.97;;;16.70;99.90;;;;;;5025607;28;20455;-83
2022/09/14 01:05:03;;;;;;;449.20;435.70;;;16.70;99.90;;;;;;5026409;28;20485;-83
2022/09/14 01:07:41;;;;;;;451.37;437.87;;;16.90;99.90;;;;;;5045273;28;20885;-83
2022/09/14 01:10:19;;;;;;;455.47;441.87;;;16.90;99.90;;;;;;5043588;28;20457;-83
2022/09/14 01:12:56;;;;;;;452.10;438.80;;;16.80;99.90;;;;;;5025184;28;20484;-84
2022/09/14 01:15:32;;;;;;;448.27;435.17;;;16.80;99.90;;;;;;5025153;28;20491;-83
2022/09/14 01:18:07;;;;;;;441.47;428.47;;;16.90;99.90;;;;;;5025409;28;20451;-83
2022/09/14 01:20:37;;;;;;;425.13;412.83;;;17.00;99.90;;;;;;5029752;28;20478;-83
2022/09/14 01:23:10;;;;;;;418.47;406.43;;;17.00;99.90;;;;;;5045368;28;20456;-83
2022/09/14 01:25:56;;;;;;;417.60;405.60;;;16.90;99.90;;;;;;5040682;28;20467;-84
2022/09/14 01:28:30;;;;;;;411.37;399.57;;;16.80;99.90;;;;;;5025037;28;20462;-83
2022/09/14 01:31:00;;;;;;;415.20;403.30;;;16.90;99.90;;;;;;5025786;28;20457;-83
2022/09/14 01:33:32;;;;;;;402.90;391.20;;;16.90;99.90;;;;;;5025332;28;20839;-84
2022/09/14 01:36:02;;;;;;;340.87;331.37;;;16.90;99.90;;;;;;5029943;28;20549;-83
2022/09/14 01:38:31;;;;;;;333.63;324.37;;;16.80;99.90;;;;;;5042544;28;20526;-83
2022/09/14 01:41:02;;;;;;;331.53;322.33;;;16.90;99.90;;;;;;5040712;28;20521;-83
2022/09/14 01:43:34;;;;;;;273.50;265.90;;;16.80;99.90;;;;;;5025530;28;20598;-83
2022/09/14 01:46:06;;;;;;;219.43;213.13;;;16.70;99.90;;;;;;5027890;28;20481;-82
2022/09/14 01:48:41;;;;;;;213.13;206.93;;;16.70;99.90;;;;;;5041286;28;20455;-82
2022/09/14 01:51:11;;;;;;;240.10;233.30;;;16.60;99.90;;;;;;5036345;28;20445;-82
2022/09/14 01:53:41;;;;;;;215.23;208.97;;;16.60;99.90;;;;;;5021997;28;20443;-82
2022/09/14 01:56:15;;;;;;;227.67;221.17;;;16.50;99.90;;;;;;5024656;28;20493;-83
2022/09/14 01:58:47;;;;;;;243.40;236.50;;;16.50;99.90;;;;;;5038269;28;20485;-82
2022/09/14 02:01:19;;;;;;;246.00;239.07;;;16.50;99.90;;;;;;5038526;28;20456;-83
2022/09/14 02:03:49;;;;;;;247.70;240.70;;;16.50;99.90;;;;;;5039341;28;20481;-82
2022/09/14 02:06:22;;;;;;;263.10;255.80;;;16.40;99.90;;;;;;5036402;28;20868;-82
2022/09/14 02:08:50;;;;;;;284.80;276.90;;;16.40;99.90;;;;;;5022516;28;20464;-82
2022/09/14 02:11:17;;;;;;;290.13;282.13;;;16.40;99.90;;;;;;5026001;28;20450;-83
2022/09/14 02:13:45;;;;;;;248.43;241.43;;;16.40;99.90;;;;;;5041505;28;20450;-83
2022/09/14 02:16:12;;;;;;;246.17;239.27;;;16.30;99.90;;;;;;5038947;28;20481;-82
2022/09/14 02:18:39;;;;;;;267.30;259.90;;;16.30;99.90;;;;;;5024475;28;20464;-83
2022/09/14 02:21:11;;;;;;;263.63;256.33;;;16.30;99.90;;;;;;5026546;28;20451;-83
2022/09/14 02:23:38;;;;;;;261.03;253.73;;;16.30;99.90;;;;;;5044620;28;20485;-83
2022/09/14 02:26:05;;;;;;;268.13;260.63;;;16.20;99.90;;;;;;5044288;28;20483;-84
2022/09/14 02:28:31;;;;;;;260.50;253.20;;;16.20;99.90;;;;;;5044401;28;20871;-83
2022/09/14 02:31:11;;;;;;;282.20;274.40;;;16.30;99.90;;;;;;5041963;28;20462;-83
2022/09/14 02:33:48;;;;;;;282.63;274.83;;;16.10;99.90;;;;;;5009873;28;20452;-81
2022/09/14 02:36:21;;;;;;;300.30;292.10;;;16.40;99.90;;;;;;5022031;28;20470;-82
2022/09/14 02:38:52;;;;;;;264.33;257.00;;;16.10;99.90;;;;;;5030647;28;20454;-82
2022/09/14 02:41:28;;;;;;;267.57;260.17;;;16.10;99.90;;;;;;5021145;28;20462;-82
2022/09/14 02:44:04;;;;;;;258.10;250.90;;;16.10;99.90;;;;;;5038707;28;20478;-83
2022/09/14 02:46:38;;;;;;;240.90;234.10;;;16.00;99.90;;;;;;5011791;28;20472;-82
2022/09/14 02:49:12;;;;;;;249.70;242.70;;;16.10;99.90;;;;;;5029375;28;20455;-78
2022/09/14 02:51:46;;;;;;;276.47;268.87;;;16.00;99.90;;;;;;5027597;28;20451;-79
2022/09/14 02:54:17;;;;;;;279.03;271.33;;;16.00;99.90;;;;;;5017841;28;20812;-78
2022/09/14 02:56:44;;;;;;;289.20;281.30;;;15.90;99.90;;;;;;5025293;28;20630;-82
2022/09/14 02:59:17;;;;;;;293.90;285.80;;;15.90;99.90;;;;;;5023562;28;20449;-84
2022/09/14 03:01:48;;;;;;;301.27;292.97;;;15.90;99.90;;;;;;5015077;28;20461;-84
2022/09/14 03:04:17;;;;;;;304.10;295.80;;;16.00;99.90;;;;;;5019650;28;21061;-83
2022/09/14 03:06:44;;;;;;;287.90;280.00;;;16.00;99.90;;;;;;5022415;28;20457;-83
2022/09/14 03:09:11;;;;;;;312.50;304.00;;;16.00;99.90;;;;;;5020163;28;20474;-83
2022/09/14 03:11:38;;;;;;;315.57;306.97;;;15.90;99.90;;;;;;5034087;28;20448;-83
2022/09/14 03:14:04;;;;;;;337.27;328.17;;;16.00;99.90;;;;;;5030539;28;20536;-81
2022/09/14 03:16:31;;;;;;;350.93;341.53;;;15.90;99.90;;;;;;5032930;28;20485;-83
2022/09/14 03:18:59;;;;;;;354.00;344.47;;;16.00;99.90;;;;;;5031625;28;20452;-78
2022/09/14 03:21:26;;;;;;;336.90;327.80;;;16.00;99.90;;;;;;5020125;28;20461;-78
2022/09/14 03:23:55;;;;;;;344.17;334.87;;;16.00;99.90;;;;;;5032215;28;21017;-79
2022/09/14 03:26:24;;;;;;;352.97;343.47;;;15.90;99.90;;;;;;5019431;28;20474;-78
2022/09/14 03:28:52;;;;;;;365.13;355.33;;;15.90;99.90;;;;;;5012789;28;20853;-79
2022/09/14 03:31:20;;;;;;;355.80;346.20;;;15.90;99.90;;;;;;5012671;28;20462;-78
2022/09/14 03:33:47;;;;;;;341.77;332.57;;;16.00;99.90;;;;;;5011607;28;20453;-78
2022/09/14 03:36:18;;;;;;;336.23;327.13;;;15.90;99.90;;;;;;5012321;28;20480;-79
2022/09/14 03:38:47;;;;;;;307.00;298.70;;;16.00;99.90;;;;;;5025631;28;20481;-79
2022/09/14 03:41:15;;;;;;;331.47;322.47;;;15.90;99.90;;;;;;5032200;28;20450;-79
2022/09/14 03:43:42;;;;;;;306.80;298.43;;;15.90;99.90;;;;;;5031335;28;21119;-79
2022/09/14 03:46:11;;;;;;;346.40;337.10;;;15.90;99.90;;;;;;5032115;28;20477;-79
2022/09/14 03:48:38;;;;;;;357.07;347.47;;;15.90;99.90;;;;;;5032184;28;20453;-79
2022/09/14 03:51:07;;;;;;;343.47;334.23;;;15.80;99.90;;;;;;5031373;28;20460;-79
2022/09/14 03:53:36;;;;;;;360.07;350.37;;;15.90;99.90;;;;;;5032044;28;20840;-79
2022/09/14 03:56:07;;;;;;;348.13;338.33;;;15.90;99.90;;;;;;5030929;28;20476;-78
2022/09/14 03:58:33;;;;;;;356.23;346.63;;;15.80;99.90;;;;;;5022417;28;20459;-79
2022/09/14 04:01:04;;;;;;;353.13;343.60;;;15.80;99.90;;;;;;5025946;28;21104;-79
2022/09/14 04:03:31;;;;;;;379.10;368.90;;;15.90;99.90;;;;;;5026063;28;20449;-81
2022/09/14 04:05:58;;;;;;;395.77;385.13;;;15.90;99.90;;;;;;5026801;28;20479;-80
2022/09/14 04:08:25;;;;;;;342.67;333.13;;;15.80;99.90;;;;;;5020385;28;20457;-80
2022/09/14 04:10:53;;;;;;;396.17;385.50;;;15.80;99.90;;;;;;5031787;28;20461;-80
2022/09/14 04:13:30;;;;;;;434.50;422.80;;;15.90;99.90;;;;;;5031380;28;20450;-80
2022/09/14 04:16:11;;;;;;;439.60;427.70;;;15.70;99.90;;;;;;5032482;28;20860;-80
2022/09/14 04:18:47;;;;;;;461.20;448.60;;;15.90;99.90;;;;;;5029087;28;20457;-79
2022/09/14 04:21:17;;;;;;;452.53;440.23;;;15.80;99.90;;;;;;5009547;28;20847;-79
2022/09/14 04:23:49;;;;;;;459.63;447.00;;;15.70;99.90;;;;;;4995693;28;20862;-79
2022/09/14 04:26:32;;;;;;;464.60;451.80;;;15.80;99.90;;;;;;5028693;28;20480;-79
2022/09/14 04:29:29;;;;;;;480.23;466.93;;;15.90;99.90;;;;;;5031753;28;21047;-80
2022/09/14 04:32:04;;;;;;;491.80;478.00;;;15.80;99.90;;;;;;5019792;28;20457;-80
2022/09/14 04:34:58;;;;;;;475.63;462.33;;;15.80;99.90;;;;;;5018712;28;20501;-81
2022/09/14 04:37:25;;;;;;;489.10;475.37;;;15.70;99.90;;;;;;5038270;28;20511;-80
2022/09/14 04:43:07;;;;;;;495.80;481.70;;;15.80;99.90;;;;;;5027807;28;20463;-82
2022/09/14 04:45:36;;;;;;;502.70;488.20;;;15.70;99.90;;;;;;5033337;28;20507;-81
2022/09/14 04:48:03;;;;;;;523.00;507.80;;;15.70;99.90;;;;;;5007568;28;20454;-81
2022/09/14 04:50:32;;;;;;;514.30;499.40;;;15.70;99.90;;;;;;5032664;28;20451;-82
2022/09/14 04:52:59;;;;;;;526.47;511.07;;;15.60;99.90;;;;;;5045138;28;20458;-82
2022/09/14 04:55:26;;;;;;;530.23;514.67;;;15.70;99.90;;;;;;5025208;28;20482;-82
2022/09/14 04:57:53;;;;;;;527.30;511.97;;;15.70;99.90;;;;;;5025276;28;20454;-81
2022/09/14 05:00:21;;;;;;;526.17;510.97;;;15.80;99.90;;;;;;5044932;28;20462;-82
2022/09/14 05:02:48;;;;;;;514.30;499.53;;;15.60;99.90;;;;;;5026459;28;20487;-81
2022/09/14 05:05:15;;;;;;;512.17;497.40;;;15.70;99.90;;;;;;5024823;28;20495;-81
2022/09/14 05:07:42;;;;;;;499.37;485.13;;;15.60;99.90;;;;;;5029383;28;20458;-81
2022/09/14 05:10:09;;;;;;;529.43;514.13;;;15.50;99.90;;;;;;5044123;28;20471;-82
2022/09/14 05:12:50;;;;;;;491.13;477.00;;;15.60;99.90;;;;;;5027866;28;20454;-83
2022/09/14 05:15:17;;;;;;;498.27;483.93;;;15.50;99.90;;;;;;5049573;22;20647;-83
2022/09/14 05:17:45;;;;;;;537.20;521.37;;;15.60;99.90;;;;;;5079472;28;20467;-83
2022/09/14 05:20:12;;;;;;;553.97;537.47;;;15.50;99.90;;;;;;5078734;28;20444;-83
2022/09/14 05:22:39;;;;;;;515.17;500.07;;;15.50;99.90;;;;;;5074049;28;20443;-83
2022/09/14 05:25:06;;;;;;;511.57;496.47;;;15.60;99.90;;;;;;5066423;28;20477;-84
2022/09/14 05:27:33;;;;;;;554.27;537.43;;;15.50;99.90;;;;;;5046787;28;20452;-83
2022/09/14 05:30:00;;;;;;;549.27;532.70;;;15.50;99.90;;;;;;5057458;28;20457;-84
2022/09/14 05:32:26;;;;;;;555.57;538.67;;;15.50;99.90;;;;;;5051529;28;20452;-84
2022/09/14 05:34:55;;;;;;;556.40;539.40;;;15.40;99.90;;;;;;5051642;28;20445;-83
2022/09/14 05:37:21;;;;;;;572.73;555.10;;;15.50;99.90;;;;;;5062997;28;20443;-83
2022/09/14 05:39:48;;;;;;;583.70;565.40;;;15.60;99.90;;;;;;5078170;28;20443;-83
2022/09/14 05:42:15;;;;;;;559.23;541.90;;;15.40;99.90;;;;;;5065307;28;20480;-83
2022/09/14 05:44:41;;;;;;;569.60;551.67;;;15.30;99.90;;;;;;5052427;28;20476;-84
2022/09/14 05:47:08;;;;;;;604.30;584.47;;;15.20;99.90;;;;;;5049211;28;20529;-82
2022/09/14 05:49:35;;;;;;;575.30;557.10;;;15.10;99.90;;;;;;5039730;28;20448;-83
2022/09/14 05:52:04;;;;;;;606.53;586.97;;;15.10;99.90;;;;;;5039089;28;20448;-83
2022/09/14 05:54:30;;;;;;;613.07;593.17;;;14.90;99.90;;;;;;5054690;28;20454;-85
2022/09/14 05:56:57;;;;;;;620.57;600.27;;;15.00;99.90;;;;;;5046747;28;20476;-83
2022/09/14 05:59:24;;;;;;;606.50;586.60;;;15.00;99.90;;;;;;5038314;28;20465;-82
2022/09/14 06:01:50;;;;;;;630.70;609.67;;;15.00;99.90;;;;;;5057065;28;20830;-83
2022/09/14 06:04:17;;;;;;;643.37;621.67;;;15.00;99.90;;;;;;5057589;28;20448;-83
2022/09/14 06:06:44;;;;;;;672.73;649.33;;;14.90;99.90;;;;;;5040032;28;20891;-82
2022/09/14 06:09:12;;;;;;;648.83;626.57;;;14.90;99.90;;;;;;5048063;28;20460;-83
2022/09/14 06:11:39;;;;;;;668.47;644.57;;;14.80;99.90;;;;;;5048951;28;20461;-83
2022/09/14 06:14:06;;;;;;;671.90;647.77;;;14.80;99.90;;;;;;5050012;28;20462;-83
2022/09/14 06:16:33;;;;;;;677.37;653.27;;;14.90;99.90;;;;;;5041322;28;20525;-83
2022/09/14 06:19:00;;;;;;;682.17;657.70;;;14.70;99.90;;;;;;5045398;28;20475;-83
2022/09/14 06:21:29;;;;;;;683.00;658.40;;;14.80;99.90;;;;;;5042333;28;20834;-81
2022/09/14 06:23:56;;;;;;;685.10;660.27;;;14.70;99.90;;;;;;5042215;28;20463;-83
2022/09/14 06:26:24;;;;;;;674.63;650.43;;;14.90;99.90;;;;;;5040857;28;21016;-83
2022/09/14 06:28:52;;;;;;;666.67;642.70;;;14.70;99.90;;;;;;5043939;28;20507;-83
2022/09/14 06:31:21;;;;;;;662.30;638.27;;;14.80;99.90;;;;;;5046889;28;20485;-83
2022/09/14 06:33:49;;;;;;;663.87;639.83;;;14.80;99.90;;;;;;5039607;28;20478;-83
2022/09/14 06:36:18;;;;;;;657.40;633.50;;;14.90;99.90;;;;;;5037541;28;20471;-83
2022/09/14 06:38:46;;;;;;;665.93;641.63;;;14.80;99.90;;;;;;5054179;28;20505;-83
2022/09/14 06:41:16;;;;;;;676.77;651.47;;;14.80;99.90;;;;;;5037427;28;20456;-83
2022/09/14 06:43:45;;;;;;;663.60;638.87;;;14.70;99.90;;;;;;5053548;28;20841;-84
2022/09/14 06:46:14;;;;;;;664.07;639.33;;;14.80;99.90;;;;;;5044172;28;20480;-83
2022/09/14 06:48:43;;;;;;;670.83;645.47;;;14.80;99.90;;;;;;5044197;28;20459;-83
2022/09/14 06:51:15;;;;;;;675.37;649.90;;;14.80;99.90;;;;;;5038926;28;20464;-85
2022/09/14 06:53:43;;;;;;;678.27;652.57;;;14.80;99.90;;;;;;5054666;28;20454;-83
2022/09/14 06:56:10;;;;;;;691.90;665.20;;;14.60;99.90;;;;;;5044564;28;20843;-83
2022/09/14 06:58:36;;;;;;;677.90;652.17;;;14.60;99.90;;;;;;5040875;28;20448;-82
2022/09/14 07:01:05;;;;;;;674.20;648.40;;;15.00;99.90;;;;;;5042400;28;20455;-82
2022/09/14 07:03:34;;;;;;;677.30;651.00;;;14.70;99.90;;;;;;5036794;28;20984;-82
2022/09/14 07:06:05;;;;;;;675.60;649.47;;;14.80;99.90;;;;;;5040699;28;20495;-82
2022/09/14 07:08:32;;;;;;;703.57;675.20;;;14.70;99.90;;;;;;5054221;28;20452;-82
2022/09/14 07:10:59;;;;;;;692.53;665.03;;;15.00;99.90;;;;;;5048559;28;20447;-83
2022/09/14 07:13:27;;;;;;;675.63;648.93;;;14.70;99.90;;;;;;5050312;28;20451;-82
2022/09/14 07:15:54;;;;;;;664.73;638.47;;;15.10;99.90;;;;;;5055176;28;20475;-83
2022/09/14 07:18:22;;;;;;;682.47;655.47;;;14.80;99.90;;;;;;5043680;28;20460;-82
2022/09/14 07:20:49;;;;;;;685.40;658.20;;;15.20;99.90;;;;;;5038615;28;20448;-86
2022/09/14 07:23:16;;;;;;;673.47;646.67;;;15.10;99.90;;;;;;5040059;28;20963;-83
2022/09/14 07:25:43;;;;;;;683.80;656.40;;;15.00;99.90;;;;;;5051541;28;20486;-83
2022/09/14 07:28:09;;;;;;;666.37;640.07;;;14.80;99.90;;;;;;5045166;28;20454;-82
2022/09/14 07:30:36;;;;;;;682.70;655.30;;;14.80;99.90;;;;;;5035395;28;20456;-83
2022/09/14 07:33:04;;;;;;;685.60;658.03;;;15.30;99.90;;;;;;5049269;28;20447;-82
2022/09/14 07:35:32;;;;;;;680.60;653.40;;;15.30;99.90;;;;;;5041362;28;20469;-84
2022/09/14 07:38:00;;;;;;;680.10;653.00;;;14.90;99.90;;;;;;5048544;28;20455;-83
2022/09/14 07:40:26;;;;;;;677.77;650.67;;;15.20;99.90;;;;;;5056739;28;20469;-83
2022/09/14 07:42:54;;;;;;;688.03;660.37;;;14.80;99.90;;;;;;5054566;28;20449;-81
2022/09/14 07:45:21;;;;;;;690.80;662.90;;;15.10;99.90;;;;;;5055378;28;20517;-83
2022/09/14 07:47:48;;;;;;;684.60;657.00;;;15.10;99.90;;;;;;5055047;28;20456;-83
2022/09/14 07:50:15;;;;;;;689.80;661.90;;;14.90;99.90;;;;;;5055797;28;20456;-82
2022/09/14 07:52:43;;;;;;;682.90;655.80;;;14.90;99.90;;;;;;5053960;28;20451;-83
2022/09/14 07:55:11;;;;;;;688.13;660.67;;;14.80;99.90;;;;;;5053692;28;20497;-83
2022/09/14 07:57:38;;;;;;;691.30;663.50;;;15.10;99.90;;;;;;5055271;28;20455;-83
2022/09/14 08:00:07;;;;;;;670.50;643.80;;;15.10;99.90;;;;;;5054067;28;20486;-82
2022/09/14 08:02:34;;;;;;;673.93;647.20;;;14.90;99.90;;;;;;5054626;28;20451;-83
2022/09/14 08:05:01;;;;;;;674.33;647.67;;;15.00;99.90;;;;;;5053616;28;21045;-82
2022/09/14 08:07:27;;;;;;;694.30;666.40;;;14.60;99.90;;;;;;5057517;28;20466;-82
2022/09/14 08:09:56;;;;;;;682.17;654.87;;;14.90;99.90;;;;;;5058328;28;20527;-82
2022/09/14 08:12:22;;;;;;;665.83;639.83;;;14.70;99.90;;;;;;5057229;28;20924;-82
2022/09/14 08:14:51;;;;;;;644.53;619.70;;;14.70;99.90;;;;;;5056997;28;20452;-82
2022/09/14 08:17:20;;;;;;;657.13;631.43;;;15.00;99.90;;;;;;5057140;28;20936;-81
2022/09/14 08:19:47;;;;;;;656.63;630.93;;;15.10;99.90;;;;;;5057082;28;20466;-82
2022/09/14 08:22:14;;;;;;;650.27;625.07;;;14.90;99.90;;;;;;5057620;28;20463;-82
2022/09/14 08:24:41;;;;;;;646.03;621.03;;;14.70;99.90;;;;;;5056366;28;20455;-82
2022/09/14 08:27:09;;;;;;;663.23;636.93;;;14.60;99.90;;;;;;5057158;28;21014;-82
2022/09/14 08:29:36;;;;;;;660.17;633.77;;;14.70;99.90;;;;;;5056440;28;20482;-83
2022/09/14 08:32:03;;;;;;;678.20;651.20;;;14.50;99.90;;;;;;5056741;28;20459;-82
2022/09/14 08:34:30;;;;;;;692.40;664.03;;;14.70;99.90;;;;;;5056386;28;20487;-81
2022/09/14 08:36:56;;;;;;;685.30;657.60;;;14.90;99.90;;;;;;5056693;28;20475;-83
2022/09/14 08:39:23;;;;;;;672.50;645.60;;;14.80;99.90;;;;;;5057009;28;20455;-83
2022/09/14 08:41:53;;;;;;;676.07;648.87;;;14.70;99.90;;;;;;5056644;28;20444;-81
2022/09/14 08:44:26;;;;;;;671.87;644.87;;;14.70;99.90;;;;;;5056248;28;20474;-81
2022/09/14 08:46:58;;;;;;;679.43;651.90;;;14.90;99.90;;;;;;5056212;28;20490;-82
2022/09/14 08:49:38;;;;;;;679.77;651.97;;;14.90;99.90;;;;;;5056460;28;20448;-81
2022/09/14 08:52:05;;;;;;;680.67;653.07;;;14.90;99.90;;;;;;5057947;28;20466;-82
2022/09/14 08:54:32;;;;;;;670.47;643.40;;;15.10;99.90;;;;;;5057064;28;20455;-83
2022/09/14 08:57:08;;;;;;;673.80;646.47;;;14.90;99.90;;;;;;5056230;28;20475;-83
2022/09/14 08:59:43;;;;;;;659.17;632.47;;;15.10;99.90;;;;;;5056520;28;20454;-82
2022/09/14 09:02:30;;;;;;;668.23;640.67;;;15.00;99.90;;;;;;5058502;28;20456;-81
2022/09/14 09:05:03;;;;;;;670.73;642.93;;;15.10;99.90;;;;;;5057645;28;20471;-81
2022/09/14 09:07:35;;;;;;;677.10;649.20;;;15.30;99.90;;;;;;5056799;28;20855;-82
2022/09/14 09:10:05;;;;;;;662.53;635.33;;;15.00;99.90;;;;;;5058541;28;20809;-82
2022/09/14 09:12:37;;;;;;;681.13;652.53;;;15.20;99.90;;;;;;5058501;28;20453;-82
2022/09/14 09:15:17;;;;;;;649.37;622.07;;;15.50;99.90;;;;;;5056530;28;20481;-82
2022/09/14 09:17:46;;;;;;;676.77;648.10;;;14.90;99.90;;;;;;5056806;28;20486;-83
2022/09/14 09:20:18;;;;;;;693.03;663.20;;;15.10;99.90;;;;;;5058342;28;20832;-83
2022/09/14 09:22:48;;;;;;;696.97;666.47;;;15.40;99.90;;;;;;5058456;28;20455;-83
2022/09/14 09:25:21;;;;;;;707.87;676.77;;;15.40;99.90;;;;;;5058292;28;20484;-82
2022/09/14 09:27:48;;;;;;;730.97;698.17;;;15.30;99.90;;;;;;5055499;28;20531;-84
2022/09/14 09:30:17;;;;;;;743.37;709.57;;;15.20;99.90;;;;;;5058859;28;20447;-84
2022/09/14 09:32:44;;;;;;;747.63;713.37;;;15.20;99.90;;;;;;5040534;28;20451;-85
2022/09/14 09:35:14;;;;;;;749.13;714.63;;;15.30;99.90;;;;;;5039139;28;20471;-82
2022/09/14 09:37:41;;;;;;;737.80;703.80;;;15.30;99.90;;;;;;5049075;28;20491;-83
2022/09/14 09:40:16;;;;;;;730.90;697.30;;;15.00;99.90;;;;;;5038869;28;20452;-83
2022/09/14 09:43:08;;;;;;;732.13;698.43;;;15.10;99.90;;;;;;5055008;28;20482;-83
2022/09/14 09:45:55;;;;;;;721.77;689.90;;;15.30;99.90;;;;;;5047512;28;21058;-84
2022/09/14 09:48:25;;;;;;;736.90;703.83;;;14.90;99.90;;;;;;5039083;28;20952;-84
2022/09/14 09:50:59;;;;;;;731.20;698.37;;;14.90;99.90;;;;;;5044620;28;20451;-82
2022/09/14 09:53:27;;;;;;;711.67;679.47;;;14.90;99.90;;;;;;5056678;28;20462;-82
2022/09/14 09:55:54;;;;;;;697.20;665.70;;;14.90;99.90;;;;;;5055452;28;20472;-83
2022/09/14 09:58:26;;;;;;;714.90;681.60;;;15.20;99.90;;;;;;5056305;28;20888;-82
2022/09/14 10:01:00;;;;;;;709.83;677.40;;;15.00;99.90;;;;;;5057768;28;20451;-83
2022/09/14 10:03:30;;;;;;;725.23;691.97;;;15.00;99.90;;;;;;5056812;28;20811;-82
2022/09/14 10:06:02;;;;;;;724.63;690.97;;;15.10;99.90;;;;;;5053782;28;20467;-83
2022/09/14 10:08:33;;;;;;;716.87;683.93;;;15.00;99.90;;;;;;5054902;28;20554;-82
2022/09/14 10:11:01;;;;;;;726.80;693.03;;;15.00;99.90;;;;;;5054123;28;20464;-82
2022/09/14 10:13:33;;;;;;;743.00;707.80;;;14.90;99.90;;;;;;5053742;28;20509;-83
2022/09/14 10:16:18;;;;;;;731.17;697.17;;;15.30;99.90;;;;;;5058146;28;20506;-84
2022/09/14 10:18:47;;;;;;;735.47;701.83;;;15.30;99.90;;;;;;5059011;28;20888;-84
2022/09/14 10:21:16;;;;;;;742.57;707.97;;;15.30;99.90;;;;;;5058500;28;20819;-84
2022/09/14 10:23:44;;;;;;;723.17;689.63;;;15.30;99.90;;;;;;5058437;28;20459;-84
2022/09/14 10:26:30;;;;;;;732.03;698.13;;;15.40;99.90;;;;;;5058587;28;20488;-83
2022/09/14 10:49:19;;;;;;;702.40;669.33;;;15.10;99.90;;;;;;4939032;29;20604;-84
2022/09/14 10:51:55;;;;;;;705.73;671.57;;;15.00;99.90;;;;;;5043753;22;20483;-83
2022/09/14 10:54:44;;;;;;;685.27;653.57;;;15.30;99.90;;;;;;5043980;28;20830;-83
2022/09/14 10:57:22;;;;;;;688.07;656.47;;;15.30;99.90;;;;;;5039037;28;20456;-83
2022/09/14 10:59:54;;;;;;;697.73;666.07;;;15.20;99.90;;;;;;5041879;28;20440;-82
2022/09/14 11:02:44;;;;;;;695.17;662.90;;;15.30;99.90;;;;;;5023600;28;20473;-83
2022/09/14 11:05:21;;;;;;;702.93;669.73;;;15.80;99.90;;;;;;5022994;28;20450;-82
2022/09/14 11:08:01;;;;;;;692.30;660.23;;;15.50;99.90;;;;;;5023493;28;20479;-83
2022/09/14 11:10:34;;;;;;;693.40;660.67;;;15.50;99.90;;;;;;5016199;28;20479;-83
2022/09/14 11:13:22;;;;;;;697.13;664.30;;;15.70;99.90;;;;;;5021239;28;20520;-83
2022/09/14 11:15:58;;;;;;;715.87;681.07;;;15.50;99.90;;;;;;5021704;28;20895;-83
2022/09/14 11:18:32;;;;;;;703.13;669.50;;;15.60;99.90;;;;;;5023675;28;20938;-82
2022/09/14 11:21:09;;;;;;;699.50;666.00;;;15.50;99.90;;;;;;5024853;28;20476;-82
2022/09/14 11:23:48;;;;;;;709.33;674.93;;;15.40;99.90;;;;;;5024418;28;20444;-82
2022/09/14 11:26:19;;;;;;;716.93;681.43;;;15.70;99.90;;;;;;5022225;28;20474;-83
2022/09/14 11:28:51;;;;;;;714.67;679.87;;;15.70;99.90;;;;;;5022017;28;20458;-81
2022/09/14 11:31:24;;;;;;;706.40;672.10;;;15.80;99.90;;;;;;5023583;28;20475;-84
2022/09/14 11:33:56;;;;;;;712.27;677.80;;;15.60;99.90;;;;;;5023224;28;20550;-82
2022/09/14 11:36:27;;;;;;;716.60;681.23;;;15.60;99.90;;;;;;5021879;28;20464;-83
2022/09/14 11:39:01;;;;;;;716.67;681.87;;;15.50;99.90;;;;;;5022316;28;20455;-82
2022/09/14 11:41:32;;;;;;;714.20;678.70;;;15.60;99.90;;;;;;5022368;28;20477;-83
2022/09/14 11:44:04;;;;;;;705.43;671.13;;;15.50;99.90;;;;;;5025843;28;20441;-83
2022/09/14 11:46:34;;;;;;;719.83;684.20;;;15.30;99.90;;;;;;5022943;28;20473;-82
2022/09/14 11:49:12;;;;;;;709.33;674.43;;;15.60;99.90;;;;;;5023202;28;20453;-83
2022/09/14 11:51:46;;;;;;;705.40;670.80;;;15.60;99.90;;;;;;5023061;28;20482;-83
2022/09/14 11:54:18;;;;;;;701.90;667.70;;;15.60;99.90;;;;;;5023355;28;20510;-82
2022/09/14 11:56:48;;;;;;;713.30;678.47;;;15.60;99.90;;;;;;5022278;28;20459;-83
2022/09/14 11:59:33;;;;;;;735.10;698.60;;;15.30;99.90;;;;;;5022720;28;20454;-83
2022/09/14 12:02:52;;;;;;;729.30;693.27;;;15.30;99.90;;;;;;5022588;28;20466;-84
2022/09/14 12:05:36;;;;;;;703.83;669.83;;;15.60;99.90;;;;;;5018416;28;20445;-84
2022/09/14 12:08:24;;;;;;;699.73;666.00;;;15.70;99.90;;;;;;5018559;28;20466;-83
2022/09/14 12:11:02;;;;;;;731.70;696.20;;;15.70;99.90;;;;;;5019833;28;20469;-84
2022/09/14 12:13:29;;;;;;;741.27;704.90;;;15.60;99.90;;;;;;5021636;28;20461;-84
2022/09/14 12:16:07;;;;;;;752.60;715.30;;;15.60;99.90;;;;;;5020256;28;20611;-83
2022/09/14 12:18:36;;;;;;;748.27;710.97;;;15.40;99.90;;;;;;5019657;28;20458;-84
2022/09/14 12:21:08;;;;;;;744.33;707.13;;;15.70;99.90;;;;;;5020340;28;20843;-84
2022/09/14 12:23:50;;;;;;;748.40;711.20;;;15.70;99.90;;;;;;5021248;28;20498;-84
2022/09/14 12:26:38;;;;;;;740.07;702.87;;;15.70;99.90;;;;;;5020048;28;20885;-84
2022/09/14 12:29:21;;;;;;;764.30;726.63;;;15.60;99.90;;;;;;5021779;28;20451;-83
2022/09/14 12:32:23;;;;;;;763.50;724.17;;;15.30;99.90;;;;;;5018817;28;20487;-83
2022/09/14 12:35:30;;;;;;;759.13;719.43;;;15.20;99.90;;;;;;5018149;28;20958;-84
2022/09/14 12:37:59;;;;;;;747.10;710.30;;;15.40;99.90;;;;;;5017206;28;20529;-82
2022/09/14 12:40:35;;;;;;;764.50;725.30;;;15.50;99.90;;;;;;5016995;28;20461;-83
2022/09/14 12:43:45;;;;;;;779.15;737.80;;;15.50;99.90;;;;;;5015545;28;20447;-82
2022/09/14 12:46:38;;;;;;;790.93;748.97;;;15.50;99.90;;;;;;5021179;28;20499;-83
2022/09/14 12:49:36;;;;;;;808.73;764.43;;;15.40;99.90;;;;;;5017862;28;20459;-84
2022/09/14 12:52:17;;;;;;;798.67;757.00;;;15.70;99.90;;;;;;5012842;28;20505;-83